Time;durP1;ratioP1;P1;durP2;ratioP2;P2;SDS_P1;SDS_P2;PMS_P1;PMS_P2;Temp;Humidity;BMP_temperature;BMP_pressure;BME280_temperature;BME280_humidity;BME280_pressure;Samples;Min_cycle;Max_cycle;Signal;HPM_P1;HPM_P2
2022/12/10 00:01:25;;;;;;;67.50;34.28;;;0.40;99.90;;;;;;5112971;28;20492;-62
2022/12/10 00:03:50;;;;;;;72.20;35.03;;;0.40;99.90;;;;;;5111644;28;20499;-62
2022/12/10 00:06:19;;;;;;;68.05;36.53;;;0.40;99.90;;;;;;5110805;28;20047;-62
2022/12/10 00:08:45;;;;;;;67.43;33.72;;;0.40;99.90;;;;;;5094672;28;20487;-62
2022/12/10 00:11:12;;;;;;;68.97;34.15;;;0.40;99.90;;;;;;5110692;28;20050;-62
2022/12/10 00:13:39;;;;;;;63.67;35.35;;;0.40;99.90;;;;;;5111799;28;20048;-62
2022/12/10 00:16:07;;;;;;;69.65;34.97;;;0.40;99.90;;;;;;5111236;28;20044;-62
2022/12/10 00:18:34;;;;;;;69.40;36.03;;;0.40;99.90;;;;;;5112170;28;20036;-62
2022/12/10 00:21:03;;;;;;;71.18;37.60;;;0.40;99.90;;;;;;5111489;28;20040;-62
2022/12/10 00:23:31;;;;;;;77.72;38.72;;;0.40;99.90;;;;;;5111616;28;20036;-62
2022/12/10 00:26:03;;;;;;;80.45;38.50;;;0.40;99.90;;;;;;5111924;28;20039;-62
2022/12/10 00:28:28;;;;;;;87.65;42.22;;;0.50;99.90;;;;;;5112692;28;20508;-62
2022/12/10 00:30:54;;;;;;;80.95;39.58;;;0.50;99.90;;;;;;5094368;28;20126;-62
2022/12/10 00:33:19;;;;;;;82.72;40.00;;;0.50;99.90;;;;;;5111815;28;20090;-62
2022/12/10 00:35:45;;;;;;;74.88;39.33;;;0.50;99.90;;;;;;5112600;28;20036;-63
2022/12/10 00:38:11;;;;;;;78.13;36.20;;;0.50;99.90;;;;;;5111169;28;20247;-62
2022/12/10 00:40:37;;;;;;;90.28;40.65;;;0.50;99.90;;;;;;5110992;28;20067;-63
2022/12/10 00:43:03;;;;;;;88.43;40.13;;;0.50;99.90;;;;;;5111441;28;20061;-63
2022/12/10 00:45:28;;;;;;;84.68;42.17;;;0.50;99.90;;;;;;5112486;28;20099;-62
2022/12/10 00:47:54;;;;;;;97.03;41.85;;;0.60;99.90;;;;;;5110270;28;20039;-63
2022/12/10 00:50:19;;;;;;;109.75;44.38;;;0.50;99.90;;;;;;5111135;28;20104;-63
2022/12/10 00:52:45;;;;;;;115.00;47.80;;;0.60;99.90;;;;;;5114671;28;20079;-62
2022/12/10 00:55:11;;;;;;;111.40;46.63;;;0.60;99.90;;;;;;5115718;28;20039;-62
2022/12/10 00:57:36;;;;;;;110.10;46.03;;;0.60;99.90;;;;;;5115618;28;20077;-63
2022/12/10 01:00:03;;;;;;;101.07;43.05;;;0.60;99.90;;;;;;5115821;28;20093;-63
2022/12/10 01:02:29;;;;;;;108.28;48.40;;;0.60;99.90;;;;;;5114477;28;20075;-63
2022/12/10 01:04:54;;;;;;;123.15;50.53;;;0.60;99.90;;;;;;5115282;28;20074;-62
2022/12/10 01:07:20;;;;;;;110.05;46.65;;;0.60;99.90;;;;;;5114482;28;20039;-62
2022/12/10 01:09:46;;;;;;;109.68;48.35;;;0.60;99.90;;;;;;5114985;28;20070;-62
2022/12/10 01:12:11;;;;;;;112.18;50.70;;;0.60;99.90;;;;;;5114955;28;20400;-63
2022/12/10 01:14:37;;;;;;;112.95;48.83;;;0.60;99.90;;;;;;5115876;28;20039;-62
2022/12/10 01:17:05;;;;;;;116.80;46.83;;;0.70;99.90;;;;;;5114768;28;20047;-62
2022/12/10 01:19:33;;;;;;;104.32;44.28;;;0.60;99.90;;;;;;5116586;28;20040;-62
2022/12/10 01:21:58;;;;;;;96.53;46.70;;;0.70;99.90;;;;;;5115417;28;20031;-62
2022/12/10 01:24:26;;;;;;;149.80;56.80;;;0.60;99.90;;;;;;5115987;28;20507;-62
2022/12/10 01:26:52;;;;;;;112.72;48.67;;;0.60;99.90;;;;;;5114643;28;20048;-62
2022/12/10 01:29:18;;;;;;;130.20;49.70;;;0.60;99.90;;;;;;5097225;28;20062;-62
2022/12/10 01:31:47;;;;;;;121.25;48.17;;;0.60;99.90;;;;;;5097776;28;20472;-62
2022/12/10 01:34:14;;;;;;;107.93;45.95;;;0.60;99.90;;;;;;5116045;28;20039;-62
2022/12/10 01:36:49;;;;;;;124.03;50.92;;;0.60;99.90;;;;;;5114091;28;20472;-62
2022/12/10 01:39:17;;;;;;;117.90;47.20;;;0.60;99.90;;;;;;5115681;28;20472;-62
2022/12/10 01:41:50;;;;;;;97.53;42.90;;;0.60;99.90;;;;;;5114728;28;20546;-62
2022/12/10 01:44:16;;;;;;;99.78;43.17;;;0.60;99.90;;;;;;5114784;28;20035;-62
2022/12/10 01:46:44;;;;;;;113.93;45.72;;;0.60;99.90;;;;;;5114594;28;20046;-63
2022/12/10 01:49:14;;;;;;;113.28;50.95;;;0.60;99.90;;;;;;5115729;28;20412;-62
2022/12/10 01:51:42;;;;;;;122.13;50.92;;;0.60;99.90;;;;;;5114263;28;20047;-63
2022/12/10 01:54:12;;;;;;;108.85;47.58;;;0.60;99.90;;;;;;5115571;28;20107;-62
2022/12/10 01:56:46;;;;;;;116.22;47.15;;;0.60;99.90;;;;;;5114808;28;20400;-62
2022/12/10 01:59:15;;;;;;;108.82;47.72;;;0.60;99.90;;;;;;5115558;28;20131;-63
2022/12/10 02:01:51;;;;;;;136.32;52.55;;;0.60;99.90;;;;;;5114358;28;20047;-63
2022/12/10 02:04:25;;;;;;;116.88;48.22;;;0.60;99.90;;;;;;5113799;28;20036;-63
2022/12/10 02:06:57;;;;;;;138.07;53.80;;;0.60;99.90;;;;;;5114089;28;20126;-62
2022/12/10 02:09:43;;;;;;;111.53;47.35;;;0.50;99.90;;;;;;5113931;28;20552;-62
2022/12/10 02:12:16;;;;;;;117.28;51.47;;;0.50;99.90;;;;;;5113217;28;20050;-62
2022/12/10 02:14:52;;;;;;;98.07;47.40;;;0.50;99.90;;;;;;5115220;28;20441;-62
2022/12/10 02:17:45;;;;;;;113.05;48.65;;;0.50;99.90;;;;;;5113829;28;20040;-62
2022/12/10 02:20:20;;;;;;;112.93;48.28;;;0.50;99.90;;;;;;5113928;28;20040;-62
2022/12/10 02:23:00;;;;;;;114.25;49.38;;;0.50;99.90;;;;;;5096820;28;20035;-62
2022/12/10 02:25:48;;;;;;;134.70;54.85;;;0.50;99.90;;;;;;5112943;28;20105;-62
2022/12/10 02:28:17;;;;;;;111.18;46.17;;;0.50;99.90;;;;;;5113535;28;20151;-62
2022/12/10 02:30:45;;;;;;;121.68;47.50;;;0.50;99.90;;;;;;5113509;28;20048;-62
2022/12/10 02:33:12;;;;;;;102.68;47.38;;;0.40;99.90;;;;;;5112902;28;20126;-63
2022/12/10 02:35:40;;;;;;;118.22;47.60;;;0.40;99.90;;;;;;5114904;28;20044;-63
2022/12/10 02:38:20;;;;;;;128.40;56.45;;;0.50;99.90;;;;;;5113190;28;20067;-62
2022/12/10 02:40:49;;;;;;;135.55;58.90;;;0.40;99.90;;;;;;5114128;27;20053;-62
2022/12/10 02:43:16;;;;;;;116.13;50.20;;;0.40;99.90;;;;;;5114592;28;20036;-62
2022/12/10 02:45:43;;;;;;;107.85;46.78;;;0.50;99.90;;;;;;5113147;28;20480;-62
2022/12/10 02:48:10;;;;;;;132.73;51.08;;;0.50;99.90;;;;;;5114508;28;20035;-63
2022/12/10 02:50:36;;;;;;;137.07;51.22;;;0.50;99.90;;;;;;5113398;28;20078;-62
2022/12/10 02:53:02;;;;;;;144.90;53.67;;;0.50;99.90;;;;;;5095315;28;20051;-63
2022/12/10 02:55:35;;;;;;;160.93;58.97;;;0.40;99.90;;;;;;5114129;28;20043;-62
2022/12/10 02:58:22;;;;;;;117.57;51.13;;;0.50;99.90;;;;;;5113189;28;20048;-62
2022/12/10 03:01:04;;;;;;;126.22;53.70;;;0.50;99.90;;;;;;5113535;28;20114;-62
2022/12/10 03:03:55;;;;;;;120.43;50.47;;;0.50;99.90;;;;;;5113163;28;20047;-62
2022/12/10 03:06:31;;;;;;;161.40;56.88;;;0.50;99.90;;;;;;5112624;28;20053;-62
2022/12/10 03:09:05;;;;;;;131.85;54.42;;;0.50;99.90;;;;;;5113242;27;20081;-62
2022/12/10 03:11:31;;;;;;;151.80;57.13;;;0.50;99.90;;;;;;5112832;28;20042;-62
2022/12/10 03:14:05;;;;;;;102.18;48.30;;;0.50;99.90;;;;;;5112778;28;20449;-62
2022/12/10 03:16:38;;;;;;;118.90;47.95;;;0.50;99.90;;;;;;5114111;28;20114;-62
2022/12/10 03:19:10;;;;;;;111.13;49.83;;;0.50;99.90;;;;;;5113753;28;20040;-62
2022/12/10 03:21:38;;;;;;;132.05;50.28;;;0.40;99.90;;;;;;5112295;28;20079;-62
2022/12/10 03:24:05;;;;;;;102.68;46.80;;;0.50;99.90;;;;;;5113429;28;20103;-62
2022/12/10 03:26:31;;;;;;;109.18;47.83;;;0.50;99.90;;;;;;5112709;28;20119;-62
2022/12/10 03:29:05;;;;;;;121.05;50.63;;;0.50;99.90;;;;;;5111622;28;20136;-62
2022/12/10 03:31:33;;;;;;;101.60;46.58;;;0.40;99.90;;;;;;5112509;28;20127;-62
2022/12/10 03:33:59;;;;;;;101.38;45.30;;;0.40;99.90;;;;;;5112371;28;20036;-62
2022/12/10 03:36:26;;;;;;;127.38;49.42;;;0.40;99.90;;;;;;5112665;28;20479;-62
2022/12/10 03:38:53;;;;;;;109.07;49.70;;;0.40;99.90;;;;;;5112291;28;20043;-62
2022/12/10 03:41:18;;;;;;;108.85;49.17;;;0.40;99.90;;;;;;5113521;28;20039;-62
2022/12/10 03:43:55;;;;;;;119.00;47.20;;;0.30;99.90;;;;;;5094474;28;20449;-62
2022/12/10 03:46:23;;;;;;;112.07;48.42;;;0.40;99.90;;;;;;5113532;28;20114;-63
2022/12/10 03:48:50;;;;;;;101.47;45.65;;;0.30;99.90;;;;;;5111940;28;20476;-63
2022/12/10 03:51:15;;;;;;;100.38;47.15;;;0.30;99.90;;;;;;5111324;28;20114;-62
2022/12/10 03:53:41;;;;;;;125.63;47.03;;;0.20;99.90;;;;;;5112222;28;20529;-63
2022/12/10 03:56:07;;;;;;;125.00;48.15;;;0.30;99.90;;;;;;5112371;28;20040;-62
2022/12/10 03:58:33;;;;;;;170.88;59.53;;;0.20;99.90;;;;;;5113247;28;20137;-62
2022/12/10 04:00:59;;;;;;;158.43;53.20;;;0.30;99.90;;;;;;5111964;28;20478;-62
2022/12/10 04:03:24;;;;;;;251.35;81.93;;;0.30;99.90;;;;;;5112132;28;20463;-62
2022/12/10 04:05:50;;;;;;;140.70;50.65;;;0.20;99.90;;;;;;5111701;28;20051;-62
2022/12/10 04:08:16;;;;;;;144.80;54.05;;;0.20;99.90;;;;;;5112004;28;20050;-62
2022/12/10 04:10:41;;;;;;;196.23;64.10;;;0.20;99.90;;;;;;5112122;28;20046;-62
2022/12/10 04:18:35;;;;;;;153.65;51.03;;;0.20;99.90;;;;;;5111296;28;20046;-62
2022/12/10 04:29:13;;;;;;;166.90;58.33;;;0.30;99.90;;;;;;5112723;28;20043;-62
2022/12/10 04:31:39;;;;;;;213.45;63.22;;;0.40;99.90;;;;;;5110821;28;20533;-62
2022/12/10 04:34:05;;;;;;;211.15;68.75;;;0.30;99.90;;;;;;5112330;28;20040;-62
2022/12/10 04:36:30;;;;;;;228.52;75.63;;;0.30;99.90;;;;;;5111446;28;20051;-62
2022/12/10 04:38:56;;;;;;;177.60;60.95;;;0.40;99.90;;;;;;5111639;28;20032;-62
2022/12/10 04:41:21;;;;;;;295.40;77.80;;;0.40;99.90;;;;;;5112399;28;20051;-62
2022/12/10 04:43:47;;;;;;;234.30;68.88;;;0.40;99.90;;;;;;5112452;28;20476;-62
2022/12/10 04:46:13;;;;;;;215.55;62.30;;;0.40;99.90;;;;;;5111645;28;20448;-62
2022/12/10 04:48:38;;;;;;;204.93;65.40;;;0.40;99.90;;;;;;5094537;28;20071;-63
2022/12/10 04:51:04;;;;;;;217.13;66.82;;;0.50;99.90;;;;;;5110933;28;20035;-62
2022/12/10 04:53:30;;;;;;;171.18;55.55;;;0.50;99.90;;;;;;5110504;28;20043;-62
2022/12/10 04:55:55;;;;;;;230.48;68.53;;;0.60;99.90;;;;;;5112036;28;20038;-62
2022/12/10 04:58:21;;;;;;;312.98;84.43;;;0.60;99.90;;;;;;5110957;28;20047;-62
2022/12/10 05:00:47;;;;;;;159.77;56.05;;;0.60;99.90;;;;;;5111383;28;20032;-62
2022/12/10 05:03:13;;;;;;;197.45;59.95;;;0.60;99.90;;;;;;5111237;28;20039;-62
2022/12/10 05:05:38;;;;;;;258.05;75.45;;;0.60;99.90;;;;;;5112562;28;20476;-62
2022/12/10 05:08:07;;;;;;;174.68;58.90;;;0.60;99.90;;;;;;5111141;28;20456;-62
2022/12/10 05:10:34;;;;;;;178.23;56.75;;;0.70;99.90;;;;;;5112362;28;20065;-62
2022/12/10 05:13:00;;;;;;;222.50;63.58;;;0.70;99.90;;;;;;5093988;28;20050;-62
2022/12/10 05:15:26;;;;;;;163.45;52.45;;;0.70;99.90;;;;;;5111183;28;20069;-62
2022/12/10 05:17:51;;;;;;;282.40;81.93;;;0.70;99.90;;;;;;5110901;28;20081;-63
2022/12/10 05:20:17;;;;;;;196.63;60.28;;;0.70;99.90;;;;;;5112146;28;20058;-63
2022/12/10 05:25:52;;;;;;;271.73;75.53;;;0.70;99.90;;;;;;5087931;28;20055;-62
2022/12/10 05:28:21;;;;;;;211.13;66.95;;;0.70;99.90;;;;;;5109985;28;20079;-62
2022/12/10 05:30:48;;;;;;;261.33;67.25;;;0.70;99.90;;;;;;5110893;28;20130;-62
2022/12/10 05:33:14;;;;;;;263.70;72.47;;;0.70;99.90;;;;;;5111861;28;20076;-62
2022/12/10 05:35:40;;;;;;;144.93;51.90;;;0.70;99.90;;;;;;5111329;28;20040;-62
2022/12/10 05:38:05;;;;;;;182.07;55.80;;;0.80;99.90;;;;;;5113602;28;20039;-62
2022/12/10 05:40:35;;;;;;;256.80;74.10;;;0.70;99.90;;;;;;5116184;28;20031;-62
2022/12/10 05:43:01;;;;;;;230.57;64.75;;;0.80;99.90;;;;;;5115383;28;20384;-62
2022/12/10 05:45:27;;;;;;;232.25;63.60;;;0.80;99.90;;;;;;5114563;28;20050;-62
2022/12/10 05:47:52;;;;;;;250.93;64.85;;;0.80;99.90;;;;;;5114339;28;20043;-62
2022/12/10 05:50:18;;;;;;;131.90;44.83;;;0.80;99.90;;;;;;5115048;28;20047;-62
2022/12/10 05:52:44;;;;;;;233.23;63.63;;;0.80;99.90;;;;;;5115512;28;20039;-62
2022/12/10 05:55:09;;;;;;;185.82;55.53;;;0.80;99.90;;;;;;5115563;28;20162;-62
2022/12/10 05:57:36;;;;;;;147.85;49.20;;;0.80;99.90;;;;;;5114857;28;20488;-63
2022/12/10 06:00:04;;;;;;;195.73;53.88;;;0.80;99.90;;;;;;5114377;28;20515;-62
2022/12/10 06:02:32;;;;;;;204.50;58.90;;;0.80;99.90;;;;;;5097177;28;20499;-62
2022/12/10 06:04:58;;;;;;;117.72;38.08;;;0.90;99.90;;;;;;5114745;28;20027;-62
2022/12/10 06:07:24;;;;;;;139.32;40.00;;;0.80;99.90;;;;;;5113945;28;20535;-62
2022/12/10 06:09:50;;;;;;;132.68;42.00;;;0.80;99.90;;;;;;5114573;28;20043;-63
2022/12/10 06:12:15;;;;;;;155.77;44.92;;;0.80;99.90;;;;;;5115078;28;20031;-62
2022/12/10 06:14:41;;;;;;;98.70;37.22;;;0.80;99.90;;;;;;5097167;28;20257;-63
2022/12/10 06:17:07;;;;;;;158.15;50.95;;;0.80;99.90;;;;;;5114221;28;20040;-62
2022/12/10 06:19:33;;;;;;;114.38;39.95;;;0.90;99.90;;;;;;5114079;28;20465;-62
2022/12/10 06:21:58;;;;;;;244.80;60.65;;;0.80;99.90;;;;;;5113944;28;20044;-62
2022/12/10 06:24:24;;;;;;;139.65;43.08;;;0.80;99.90;;;;;;5114202;28;20119;-62
2022/12/10 06:26:50;;;;;;;210.05;58.08;;;0.90;99.90;;;;;;5114861;28;20086;-62
2022/12/10 06:29:17;;;;;;;123.25;41.15;;;0.80;99.90;;;;;;5114904;28;20051;-62
2022/12/10 06:31:43;;;;;;;117.38;37.20;;;0.90;99.90;;;;;;5113945;28;20031;-63
2022/12/10 06:34:09;;;;;;;134.80;42.55;;;0.90;99.90;;;;;;5113735;28;20427;-62
2022/12/10 06:36:35;;;;;;;122.88;43.25;;;0.90;99.90;;;;;;5115145;28;20039;-62
2022/12/10 06:39:01;;;;;;;132.68;46.03;;;0.90;99.90;;;;;;5113907;28;20039;-62
2022/12/10 06:41:27;;;;;;;119.90;41.47;;;0.90;99.90;;;;;;5113590;28;20040;-62
2022/12/10 06:43:53;;;;;;;154.73;46.97;;;0.90;99.90;;;;;;5114605;28;20114;-62
2022/12/10 06:46:20;;;;;;;182.10;48.72;;;0.90;99.90;;;;;;5112272;28;20040;-62
2022/12/10 06:48:46;;;;;;;98.72;35.47;;;0.90;99.90;;;;;;5114416;28;20137;-62
2022/12/10 06:51:13;;;;;;;149.50;45.70;;;0.90;99.90;;;;;;5112895;28;20125;-62
2022/12/10 06:53:40;;;;;;;168.38;47.75;;;0.90;99.90;;;;;;5112639;28;20051;-62
2022/12/10 06:56:07;;;;;;;191.25;53.35;;;0.90;99.90;;;;;;5114212;28;20071;-62
2022/12/10 06:58:34;;;;;;;140.55;43.63;;;0.90;99.90;;;;;;5114341;27;20058;-62
2022/12/10 07:01:10;;;;;;;232.15;63.55;;;0.90;99.90;;;;;;5113504;27;20119;-62
2022/12/10 07:03:36;;;;;;;184.27;51.55;;;1.00;99.90;;;;;;5114521;28;20044;-62
2022/12/10 07:06:02;;;;;;;157.93;43.22;;;0.90;99.90;;;;;;5113397;28;20047;-62
2022/12/10 07:08:28;;;;;;;114.43;38.00;;;0.90;99.90;;;;;;5113355;28;20516;-62
2022/12/10 07:10:57;;;;;;;146.57;46.13;;;0.90;99.90;;;;;;5112778;28;20141;-62
2022/12/10 07:13:24;;;;;;;151.25;45.42;;;0.90;99.90;;;;;;5112142;28;20070;-62
2022/12/10 07:15:50;;;;;;;152.30;41.95;;;0.90;99.90;;;;;;5114021;28;20040;-62
2022/12/10 07:18:15;;;;;;;179.32;45.75;;;0.90;99.90;;;;;;5112934;28;20511;-62
2022/12/10 07:20:41;;;;;;;128.57;40.08;;;0.90;99.90;;;;;;5113501;28;20517;-62
2022/12/10 07:23:07;;;;;;;176.50;45.10;;;0.90;99.90;;;;;;5112827;28;20043;-62
2022/12/10 07:25:33;;;;;;;230.02;59.60;;;0.90;99.90;;;;;;5113829;28;20050;-62
2022/12/10 07:27:59;;;;;;;147.77;39.65;;;0.90;99.90;;;;;;5112638;28;20130;-62
2022/12/10 07:30:24;;;;;;;206.77;55.13;;;1.00;99.90;;;;;;5113655;28;20139;-62
2022/12/10 07:32:50;;;;;;;134.68;40.10;;;0.90;99.90;;;;;;5112324;28;20496;-62
2022/12/10 07:35:16;;;;;;;165.13;46.10;;;1.00;99.90;;;;;;5112923;28;20430;-62
2022/12/10 07:37:41;;;;;;;171.50;46.25;;;0.90;99.90;;;;;;5113520;28;20040;-62
2022/12/10 07:40:08;;;;;;;215.60;57.20;;;1.00;99.90;;;;;;5113505;28;20089;-62
2022/12/10 07:42:33;;;;;;;146.60;39.97;;;1.00;99.90;;;;;;5112969;28;20045;-62
2022/12/10 07:44:59;;;;;;;173.48;50.13;;;1.00;99.90;;;;;;5113656;28;20114;-62
2022/12/10 07:47:25;;;;;;;211.02;51.38;;;1.00;99.90;;;;;;5112365;28;20052;-62
2022/12/10 07:49:51;;;;;;;200.05;54.17;;;1.00;99.90;;;;;;5111153;28;20047;-62
2022/12/10 07:52:16;;;;;;;226.18;54.65;;;1.00;99.90;;;;;;5111887;28;20040;-62
2022/12/10 07:54:43;;;;;;;121.63;37.83;;;1.00;99.90;;;;;;5092991;28;20044;-62
2022/12/10 07:57:09;;;;;;;141.88;37.08;;;1.00;99.90;;;;;;5093590;28;20032;-62
2022/12/10 07:59:34;;;;;;;134.52;42.22;;;1.00;99.90;;;;;;5112277;28;20460;-62
2022/12/10 08:02:00;;;;;;;172.65;40.88;;;1.00;99.90;;;;;;5111405;28;20043;-63
2022/12/10 08:04:29;;;;;;;130.93;40.88;;;1.00;99.90;;;;;;5110198;28;20032;-62
2022/12/10 08:06:55;;;;;;;192.43;50.70;;;1.00;99.90;;;;;;5110605;28;20483;-62
2022/12/10 08:09:21;;;;;;;221.77;54.70;;;1.00;99.90;;;;;;5109558;28;20042;-62
2022/12/10 08:11:47;;;;;;;131.63;37.88;;;1.10;99.90;;;;;;5109252;28;20044;-62
2022/12/10 08:14:13;;;;;;;197.38;46.35;;;1.00;99.90;;;;;;5110897;28;20047;-62
2022/12/10 08:16:38;;;;;;;181.70;48.33;;;1.00;99.90;;;;;;5108699;28;20062;-62
2022/12/10 08:19:05;;;;;;;148.82;43.45;;;1.00;99.90;;;;;;5110008;28;20035;-62
2022/12/10 08:21:32;;;;;;;143.27;39.03;;;1.00;99.90;;;;;;5110158;28;20114;-63
2022/12/10 08:23:58;;;;;;;165.50;46.97;;;1.00;99.90;;;;;;5108601;28;20165;-63
2022/12/10 08:26:27;;;;;;;125.05;39.45;;;1.10;99.90;;;;;;5108708;28;20063;-62
2022/12/10 08:28:54;;;;;;;128.00;37.08;;;1.10;99.90;;;;;;5108078;28;20504;-64
2022/12/10 08:31:21;;;;;;;130.70;41.03;;;1.10;99.90;;;;;;5109633;28;20050;-63
2022/12/10 08:33:46;;;;;;;132.40;37.47;;;1.00;99.90;;;;;;5110206;28;20039;-62
2022/12/10 08:36:15;;;;;;;149.55;45.45;;;1.00;99.90;;;;;;5110229;28;20043;-62
2022/12/10 08:38:41;;;;;;;189.35;48.95;;;1.00;99.90;;;;;;5107939;28;20050;-61
2022/12/10 08:41:08;;;;;;;162.48;43.97;;;1.00;99.90;;;;;;5108482;28;20039;-62
2022/12/10 08:43:34;;;;;;;147.15;40.90;;;1.00;99.90;;;;;;5109090;28;20088;-62
2022/12/10 08:46:00;;;;;;;153.10;44.17;;;1.10;99.90;;;;;;5108187;28;20039;-61
2022/12/10 08:48:26;;;;;;;127.93;38.45;;;1.10;99.90;;;;;;5106122;28;20427;-62
2022/12/10 08:50:51;;;;;;;171.27;46.83;;;1.10;99.90;;;;;;5107513;28;20043;-62
2022/12/10 08:53:17;;;;;;;101.13;34.72;;;1.10;99.90;;;;;;5105611;28;20075;-62
2022/12/10 08:55:43;;;;;;;115.45;37.53;;;1.00;99.90;;;;;;5107606;28;20043;-62
2022/12/10 08:58:09;;;;;;;144.27;41.53;;;1.10;99.90;;;;;;5110000;28;20039;-62
2022/12/10 09:00:36;;;;;;;150.43;42.25;;;1.10;99.90;;;;;;5109661;28;20046;-62
2022/12/10 09:03:02;;;;;;;139.90;36.90;;;1.10;99.90;;;;;;5108511;28;20054;-62
2022/12/10 09:05:28;;;;;;;158.38;45.85;;;1.00;99.90;;;;;;5108245;28;20044;-62
2022/12/10 09:07:53;;;;;;;157.00;42.17;;;1.00;99.90;;;;;;5090606;28;20371;-62
2022/12/10 09:10:19;;;;;;;154.52;42.45;;;1.00;99.90;;;;;;5108743;28;20036;-62
2022/12/10 09:12:44;;;;;;;93.68;31.05;;;1.00;99.90;;;;;;5092159;28;20093;-61
2022/12/10 09:15:10;;;;;;;101.20;31.73;;;1.00;99.90;;;;;;5114040;28;20039;-61
2022/12/10 09:17:38;;;;;;;112.65;34.92;;;1.10;99.90;;;;;;5112586;28;20039;-62
2022/12/10 09:20:05;;;;;;;107.10;33.38;;;1.00;99.90;;;;;;5111796;28;20484;-62
2022/12/10 09:22:31;;;;;;;98.70;32.45;;;1.00;99.90;;;;;;5114926;28;20537;-61
2022/12/10 09:24:56;;;;;;;191.10;46.58;;;1.00;99.90;;;;;;5115255;28;20365;-62
2022/12/10 09:27:22;;;;;;;109.97;33.67;;;1.10;99.90;;;;;;5115285;28;20052;-62
2022/12/10 09:29:48;;;;;;;224.80;52.70;;;1.00;99.90;;;;;;5116028;28;20047;-62
2022/12/10 09:32:13;;;;;;;123.65;36.42;;;1.00;99.90;;;;;;5115883;28;20404;-62
2022/12/10 09:34:39;;;;;;;134.73;38.35;;;1.00;99.90;;;;;;5115585;28;20028;-62
2022/12/10 09:37:05;;;;;;;117.80;36.38;;;1.00;99.90;;;;;;5115448;28;20503;-62
2022/12/10 09:39:31;;;;;;;89.63;29.08;;;1.00;99.90;;;;;;5115102;28;20043;-62
2022/12/10 09:42:05;;;;;;;101.47;32.78;;;1.00;99.90;;;;;;5114082;28;20104;-62
2022/12/10 09:44:59;;;;;;;156.82;41.10;;;1.00;99.90;;;;;;5115780;28;20040;-62
2022/12/10 09:47:33;;;;;;;123.88;35.78;;;1.00;99.90;;;;;;5114416;28;20373;-62
2022/12/10 09:53:12;;;;;;;94.53;31.08;;;1.10;99.90;;;;;;5113928;28;20126;-62
2022/12/10 09:55:43;;;;;;;85.30;28.13;;;1.10;99.90;;;;;;5103528;28;20047;-62
2022/12/10 09:58:22;;;;;;;173.63;45.03;;;1.10;99.90;;;;;;5098483;28;20031;-61
2022/12/10 10:00:53;;;;;;;114.28;32.47;;;1.00;99.90;;;;;;5101482;28;20043;-62
2022/12/10 10:03:19;;;;;;;87.28;27.45;;;1.00;99.90;;;;;;5110082;28;20480;-62
2022/12/10 10:05:50;;;;;;;99.38;31.15;;;1.00;99.90;;;;;;5112404;28;20082;-62
2022/12/10 10:08:36;;;;;;;188.90;44.63;;;1.00;99.90;;;;;;5112788;28;20048;-62
2022/12/10 10:11:02;;;;;;;;;;;1.00;99.90;;;;;;5112899;27;20408;-62
2022/12/10 10:13:36;;;;;;;93.00;28.58;;;1.00;99.90;;;;;;5112859;28;19926;-62
2022/12/10 10:16:16;;;;;;;187.82;45.97;;;1.00;99.90;;;;;;5111704;28;21323;-62
2022/12/10 10:19:07;;;;;;;119.03;33.78;;;1.00;99.90;;;;;;5111186;28;20040;-62
2022/12/10 10:21:38;;;;;;;85.50;24.92;;;1.00;99.90;;;;;;5101832;28;20048;-62
2022/12/10 10:24:05;;;;;;;116.05;32.10;;;1.00;99.90;;;;;;5109746;28;20039;-62
2022/12/10 10:26:32;;;;;;;180.70;42.90;;;1.00;99.90;;;;;;5112213;28;20043;-62
2022/12/10 10:29:01;;;;;;;97.60;30.90;;;1.00;99.90;;;;;;5112416;28;20404;-62
2022/12/10 10:31:32;;;;;;;94.22;27.08;;;1.00;99.90;;;;;;5111420;28;20082;-62
2022/12/10 10:34:00;;;;;;;99.10;28.95;;;1.00;99.90;;;;;;5110787;28;20058;-62
2022/12/10 10:36:32;;;;;;;169.40;39.80;;;1.00;99.90;;;;;;5113100;28;20078;-62
2022/12/10 10:39:16;;;;;;;216.60;50.17;;;1.00;99.90;;;;;;5102460;28;20047;-62
2022/12/10 10:41:42;;;;;;;128.18;32.38;;;1.00;99.90;;;;;;5113932;28;20036;-62
2022/12/10 10:44:23;;;;;;;118.38;35.05;;;1.00;99.90;;;;;;5114098;28;20035;-62
2022/12/10 10:46:52;;;;;;;171.18;42.85;;;1.00;99.90;;;;;;5095227;28;20035;-62
2022/12/10 10:49:23;;;;;;;114.80;31.95;;;1.00;99.90;;;;;;5087921;28;20042;-62
2022/12/10 10:51:50;;;;;;;114.78;31.80;;;1.00;99.90;;;;;;5113554;28;20550;-62
2022/12/10 10:54:34;;;;;;;140.32;36.38;;;1.00;99.90;;;;;;5091433;28;20069;-62
2022/12/10 10:57:04;;;;;;;183.32;46.97;;;0.90;99.90;;;;;;5112773;28;20046;-62
2022/12/10 10:59:36;;;;;;;76.88;25.90;;;0.90;99.90;;;;;;5110661;28;20046;-62
2022/12/10 11:02:15;;;;;;;102.78;32.97;;;0.90;99.90;;;;;;5112216;28;20092;-61
2022/12/10 11:05:08;;;;;;;157.05;40.88;;;0.90;99.90;;;;;;5107467;28;20043;-62
2022/12/10 11:07:40;;;;;;;95.60;30.85;;;0.90;99.90;;;;;;5088225;28;20054;-62
2022/12/10 11:10:21;;;;;;;181.45;44.00;;;0.90;99.90;;;;;;5111876;28;20067;-62
2022/12/10 11:13:00;;;;;;;117.55;34.92;;;1.00;99.90;;;;;;5113434;28;20039;-62
2022/12/10 11:15:42;;;;;;;111.55;34.90;;;1.00;99.90;;;;;;5112849;28;20040;-62
2022/12/10 11:18:24;;;;;;;134.40;39.97;;;0.90;99.90;;;;;;5112759;28;20032;-61
2022/12/10 11:21:03;;;;;;;126.43;35.00;;;0.90;99.90;;;;;;5111683;28;20046;-61
2022/12/10 11:23:39;;;;;;;71.80;26.17;;;0.90;99.90;;;;;;5113469;28;20067;-61
2022/12/10 11:26:17;;;;;;;75.60;27.55;;;0.90;99.90;;;;;;5112628;28;20104;-62
2022/12/10 11:29:07;;;;;;;106.40;32.40;;;0.90;99.90;;;;;;5112425;28;20064;-62
2022/12/10 11:31:51;;;;;;;123.40;35.22;;;0.90;99.90;;;;;;5112971;28;20436;-62
2022/12/10 11:35:01;;;;;;;88.95;27.02;;;1.00;99.90;;;;;;5113090;28;20086;-62
2022/12/10 11:37:32;;;;;;;74.43;26.70;;;1.00;99.90;;;;;;5086443;28;20058;-62
2022/12/10 11:40:13;;;;;;;80.43;27.05;;;1.00;99.90;;;;;;5112235;28;20055;-62
2022/12/10 11:42:53;;;;;;;126.03;36.80;;;1.00;99.90;;;;;;5112184;28;20075;-62
2022/12/10 11:45:30;;;;;;;76.10;25.58;;;1.00;99.90;;;;;;5114004;28;20039;-62
2022/12/10 11:48:30;;;;;;;103.75;31.15;;;1.10;99.90;;;;;;5111643;28;20045;-62
2022/12/10 11:51:19;;;;;;;98.10;31.48;;;1.10;99.90;;;;;;5112278;28;20049;-62
2022/12/10 11:53:45;;;;;;;94.47;32.05;;;1.00;99.90;;;;;;5112122;28;20046;-62
2022/12/10 11:56:14;;;;;;;72.95;26.48;;;1.10;99.90;;;;;;5111821;28;20035;-62
2022/12/10 11:58:54;;;;;;;103.97;33.97;;;1.10;99.90;;;;;;5110073;28;20392;-62
2022/12/10 12:01:30;;;;;;;104.75;34.67;;;1.10;99.90;;;;;;5093373;27;20066;-62
2022/12/10 12:04:08;;;;;;;112.15;35.33;;;1.10;99.90;;;;;;5109973;28;20670;-62
2022/12/10 12:06:48;;;;;;;134.70;37.28;;;1.10;99.90;;;;;;5107403;28;20054;-61
2022/12/10 12:09:52;;;;;;;126.38;36.83;;;1.20;99.90;;;;;;5109710;28;20035;-62
2022/12/10 12:12:31;;;;;;;95.60;34.20;;;1.20;99.90;;;;;;5050310;28;20041;-62
2022/12/10 12:15:02;;;;;;;93.82;31.15;;;1.20;99.90;;;;;;5092853;28;20054;-62
2022/12/10 12:17:32;;;;;;;96.05;34.53;;;1.20;99.90;;;;;;5108000;28;20043;-62
2022/12/10 12:20:02;;;;;;;77.15;28.90;;;1.20;99.90;;;;;;5110199;27;20067;-62
2022/12/10 12:22:38;;;;;;;89.75;34.70;;;1.20;99.90;;;;;;5109787;28;20047;-62
2022/12/10 12:25:27;;;;;;;114.07;35.95;;;1.30;99.90;;;;;;5107150;28;20040;-62
2022/12/10 12:28:16;;;;;;;107.60;36.90;;;1.30;99.90;;;;;;5090767;28;20047;-62
2022/12/10 12:30:45;;;;;;;91.07;32.20;;;1.30;99.90;;;;;;5104849;28;20051;-62
2022/12/10 12:33:40;;;;;;;127.97;43.45;;;1.30;99.90;;;;;;5100783;28;20051;-62
2022/12/10 12:36:08;;;;;;;86.00;32.38;;;1.30;99.90;;;;;;5066776;28;20062;-62
2022/12/10 12:38:56;;;;;;;90.80;32.95;;;1.30;99.90;;;;;;5102108;28;20040;-62
2022/12/10 12:41:36;;;;;;;121.10;36.85;;;1.30;99.90;;;;;;5099993;28;20050;-62
2022/12/10 12:44:21;;;;;;;121.05;38.75;;;1.30;99.90;;;;;;5107392;28;20047;-62
2022/12/10 12:46:48;;;;;;;70.63;29.53;;;1.30;99.90;;;;;;5097743;28;20078;-62
2022/12/10 12:49:32;;;;;;;103.93;37.90;;;1.30;99.90;;;;;;5109564;28;20036;-62
2022/12/10 12:52:07;;;;;;;75.05;31.35;;;1.30;99.90;;;;;;5107306;28;20043;-62
2022/12/10 12:54:33;;;;;;;92.38;33.13;;;1.30;99.90;;;;;;5107851;28;20035;-62
2022/12/10 12:57:08;;;;;;;99.93;38.05;;;1.30;99.90;;;;;;5107727;28;20428;-62
2022/12/10 13:00:02;;;;;;;98.67;35.50;;;1.40;99.90;;;;;;5108508;28;20444;-62
2022/12/10 13:02:50;;;;;;;115.32;41.42;;;1.30;99.90;;;;;;5108561;28;20289;-62